sensor_id;sensor_type;location;lat;lon;timestamp;pressure;altitude;pressure_sealevel;temperature;humidity
34979;BME280;21185;50.978;13.720;2022-07-05T00:04:18;98573.06;;;23.05;40.91
34979;BME280;21185;50.978;13.720;2022-07-05T00:09:21;98574.00;;;22.99;40.96
34979;BME280;21185;50.978;13.720;2022-07-05T00:14:24;98575.75;;;22.93;40.96
34979;BME280;21185;50.978;13.720;2022-07-05T00:19:27;98565.06;;;22.88;40.79
34979;BME280;21185;50.978;13.720;2022-07-05T00:24:30;98563.91;;;22.84;41.06
34979;BME280;21185;50.978;13.720;2022-07-05T00:29:33;98567.03;;;22.81;41.03
34979;BME280;21185;50.978;13.720;2022-07-05T00:34:36;98556.69;;;22.80;41.14
34979;BME280;21185;50.978;13.720;2022-07-05T00:39:39;98562.41;;;22.77;41.35
34979;BME280;21185;50.978;13.720;2022-07-05T00:44:43;98561.03;;;22.74;41.30
34979;BME280;21185;50.978;13.720;2022-07-05T00:49:46;98551.16;;;22.70;41.69
34979;BME280;21185;50.978;13.720;2022-07-05T00:54:49;98549.78;;;22.67;41.43
34979;BME280;21185;50.978;13.720;2022-07-05T00:59:52;98550.72;;;22.61;41.86
34979;BME280;21185;50.978;13.720;2022-07-05T01:04:56;98549.81;;;22.55;41.89
34979;BME280;21185;50.978;13.720;2022-07-05T01:10:00;98543.84;;;22.48;42.16
34979;BME280;21185;50.978;13.720;2022-07-05T01:15:03;98543.97;;;22.42;41.92
34979;BME280;21185;50.978;13.720;2022-07-05T01:20:07;98544.06;;;22.35;42.33
34979;BME280;21185;50.978;13.720;2022-07-05T01:25:10;98551.91;;;22.30;42.18
34979;BME280;21185;50.978;13.720;2022-07-05T01:30:13;98557.06;;;22.25;42.45
34979;BME280;21185;50.978;13.720;2022-07-05T01:35:17;98554.31;;;22.20;42.45
34979;BME280;21185;50.978;13.720;2022-07-05T01:40:23;98553.16;;;22.16;42.66
34979;BME280;21185;50.978;13.720;2022-07-05T01:45:26;98560.75;;;22.12;42.79
34979;BME280;21185;50.978;13.720;2022-07-05T01:51:18;98563.84;;;22.09;42.65
34979;BME280;21185;50.978;13.720;2022-07-05T01:56:24;98552.34;;;22.04;42.96
34979;BME280;21185;50.978;13.720;2022-07-05T02:01:37;98564.16;;;22.01;42.77
34979;BME280;21185;50.978;13.720;2022-07-05T02:06:40;98559.78;;;21.95;42.92
34979;BME280;21185;50.978;13.720;2022-07-05T02:11:44;98550.69;;;21.91;42.93
34979;BME280;21185;50.978;13.720;2022-07-05T02:16:48;98556.66;;;21.86;43.29
34979;BME280;21185;50.978;13.720;2022-07-05T02:21:53;98562.63;;;21.82;43.07
34979;BME280;21185;50.978;13.720;2022-07-05T02:26:57;98552.75;;;21.77;43.33
34979;BME280;21185;50.978;13.720;2022-07-05T02:32:00;98561.34;;;21.73;43.47
34979;BME280;21185;50.978;13.720;2022-07-05T02:37:04;98551.69;;;21.66;43.35
34979;BME280;21185;50.978;13.720;2022-07-05T02:42:08;98548.94;;;21.61;43.52
34979;BME280;21185;50.978;13.720;2022-07-05T02:47:11;98554.66;;;21.58;43.78
34979;BME280;21185;50.978;13.720;2022-07-05T02:52:15;98549.25;;;21.53;43.76
34979;BME280;21185;50.978;13.720;2022-07-05T02:57:19;98548.91;;;21.50;43.87
34979;BME280;21185;50.978;13.720;2022-07-05T03:02:22;98558.88;;;21.48;44.16
34979;BME280;21185;50.978;13.720;2022-07-05T03:07:29;98556.91;;;21.43;44.17
34979;BME280;21185;50.978;13.720;2022-07-05T03:12:34;98577.09;;;21.38;44.23
34979;BME280;21185;50.978;13.720;2022-07-05T03:17:38;98576.97;;;21.32;44.34
34979;BME280;21185;50.978;13.720;2022-07-05T03:22:42;98581.31;;;21.27;44.55
34979;BME280;21185;50.978;13.720;2022-07-05T03:27:46;98579.91;;;21.24;44.24
34979;BME280;21185;50.978;13.720;2022-07-05T03:32:49;98588.84;;;21.23;44.63
34979;BME280;21185;50.978;13.720;2022-07-05T03:37:53;98592.53;;;21.22;44.64
34979;BME280;21185;50.978;13.720;2022-07-05T03:42:57;98585.41;;;21.23;44.57
34979;BME280;21185;50.978;13.720;2022-07-05T03:48:04;98588.63;;;21.25;44.56
34979;BME280;21185;50.978;13.720;2022-07-05T03:53:27;98595.75;;;21.24;44.96
34979;BME280;21185;50.978;13.720;2022-07-05T03:58:30;98598.59;;;21.23;45.03
34979;BME280;21185;50.978;13.720;2022-07-05T04:03:34;98597.81;;;21.22;45.08
34979;BME280;21185;50.978;13.720;2022-07-05T04:08:43;98600.81;;;21.26;45.43
34979;BME280;21185;50.978;13.720;2022-07-05T04:13:47;98602.19;;;21.28;45.26
34979;BME280;21185;50.978;13.720;2022-07-05T04:18:51;98604.16;;;21.33;45.12
34979;BME280;21185;50.978;13.720;2022-07-05T04:23:55;98603.34;;;21.32;45.18
34979;BME280;21185;50.978;13.720;2022-07-05T04:28:59;98604.16;;;21.33;45.15
34979;BME280;21185;50.978;13.720;2022-07-05T04:34:08;98610.25;;;21.33;45.57
34979;BME280;21185;50.978;13.720;2022-07-05T04:39:15;98619.56;;;21.36;45.50
34979;BME280;21185;50.978;13.720;2022-07-05T04:44:28;98622.09;;;21.43;45.52
34979;BME280;21185;50.978;13.720;2022-07-05T04:49:31;98622.25;;;21.48;45.78
34979;BME280;21185;50.978;13.720;2022-07-05T04:54:36;98625.47;;;21.50;46.21
34979;BME280;21185;50.978;13.720;2022-07-05T04:59:39;98632.34;;;21.51;46.35
34979;BME280;21185;50.978;13.720;2022-07-05T05:04:43;98630.28;;;21.53;46.84
34979;BME280;21185;50.978;13.720;2022-07-05T05:09:46;98630.06;;;21.54;46.81
34979;BME280;21185;50.978;13.720;2022-07-05T05:14:50;98639.25;;;21.52;46.98
34979;BME280;21185;50.978;13.720;2022-07-05T05:19:53;98634.41;;;21.49;46.96
34979;BME280;21185;50.978;13.720;2022-07-05T05:24:56;98644.25;;;21.42;47.02
34979;BME280;21185;50.978;13.720;2022-07-05T05:29:59;98637.09;;;21.30;47.47
34979;BME280;21185;50.978;13.720;2022-07-05T05:35:01;98634.31;;;21.25;47.82
34979;BME280;21185;50.978;13.720;2022-07-05T05:40:05;98632.84;;;21.29;47.76
34979;BME280;21185;50.978;13.720;2022-07-05T05:45:08;98632.97;;;21.34;47.34
34979;BME280;21185;50.978;13.720;2022-07-05T05:50:12;98639.13;;;21.47;47.31
34979;BME280;21185;50.978;13.720;2022-07-05T05:55:17;98635.13;;;21.56;47.32
34979;BME280;21185;50.978;13.720;2022-07-05T06:00:21;98636.06;;;21.61;47.16
34979;BME280;21185;50.978;13.720;2022-07-05T06:05:24;98648.50;;;21.73;46.92
34979;BME280;21185;50.978;13.720;2022-07-05T06:10:30;98645.81;;;21.91;46.73
34979;BME280;21185;50.978;13.720;2022-07-05T06:15:34;98647.16;;;22.12;46.68
34979;BME280;21185;50.978;13.720;2022-07-05T06:20:38;98657.97;;;22.22;46.29
34979;BME280;21185;50.978;13.720;2022-07-05T06:25:41;98654.53;;;22.33;46.20
34979;BME280;21185;50.978;13.720;2022-07-05T06:30:44;98656.97;;;22.46;46.31
34979;BME280;21185;50.978;13.720;2022-07-05T06:35:47;98662.47;;;22.68;45.93
34979;BME280;21185;50.978;13.720;2022-07-05T06:40:50;98654.09;;;22.83;45.91
34979;BME280;21185;50.978;13.720;2022-07-05T06:45:53;98661.69;;;23.03;45.22
34979;BME280;21185;50.978;13.720;2022-07-05T06:50:57;98659.00;;;23.14;44.96
34979;BME280;21185;50.978;13.720;2022-07-05T06:56:00;98659.66;;;23.33;44.72
34979;BME280;21185;50.978;13.720;2022-07-05T07:01:02;98655.94;;;23.46;44.31
34979;BME280;21185;50.978;13.720;2022-07-05T07:06:23;98658.56;;;23.57;44.25
34979;BME280;21185;50.978;13.720;2022-07-05T07:11:27;98657.94;;;23.67;43.84
34979;BME280;21185;50.978;13.720;2022-07-05T07:16:30;98656.22;;;23.89;44.15
34979;BME280;21185;50.978;13.720;2022-07-05T07:21:33;98662.91;;;24.09;44.32
34979;BME280;21185;50.978;13.720;2022-07-05T07:26:36;98656.00;;;24.25;43.86
34979;BME280;21185;50.978;13.720;2022-07-05T07:31:58;98652.59;;;24.41;43.65
34979;BME280;21185;50.978;13.720;2022-07-05T07:37:03;98646.69;;;24.56;43.62
34979;BME280;21185;50.978;13.720;2022-07-05T07:42:07;98648.47;;;24.67;43.76
34979;BME280;21185;50.978;13.720;2022-07-05T07:47:11;98651.75;;;24.74;42.95
34979;BME280;21185;50.978;13.720;2022-07-05T07:52:13;98652.84;;;24.78;42.33
34979;BME280;21185;50.978;13.720;2022-07-05T07:57:17;98646.16;;;24.92;42.32
34979;BME280;21185;50.978;13.720;2022-07-05T08:02:21;98644.47;;;25.03;42.06
34979;BME280;21185;50.978;13.720;2022-07-05T08:07:26;98645.81;;;25.05;42.05
34979;BME280;21185;50.978;13.720;2022-07-05T08:12:29;98655.50;;;25.16;41.71
34979;BME280;21185;50.978;13.720;2022-07-05T08:17:32;98654.09;;;25.31;41.10
34979;BME280;21185;50.978;13.720;2022-07-05T08:22:34;98648.09;;;25.40;41.07
34979;BME280;21185;50.978;13.720;2022-07-05T08:27:37;98654.56;;;25.49;40.27
34979;BME280;21185;50.978;13.720;2022-07-05T08:32:40;98646.66;;;25.55;39.96
34979;BME280;21185;50.978;13.720;2022-07-05T08:37:44;98641.88;;;25.57;39.68
34979;BME280;21185;50.978;13.720;2022-07-05T08:42:48;98647.59;;;25.65;39.20
34979;BME280;21185;50.978;13.720;2022-07-05T08:47:53;98641.78;;;25.68;39.09
34979;BME280;21185;50.978;13.720;2022-07-05T08:52:59;98647.50;;;25.82;38.71
34979;BME280;21185;50.978;13.720;2022-07-05T08:58:02;98643.03;;;25.88;38.68
34979;BME280;21185;50.978;13.720;2022-07-05T09:03:06;98639.31;;;25.89;38.16
34979;BME280;21185;50.978;13.720;2022-07-05T09:08:11;98638.59;;;25.98;37.88
34979;BME280;21185;50.978;13.720;2022-07-05T09:13:16;98640.47;;;26.03;37.10
34979;BME280;21185;50.978;13.720;2022-07-05T09:18:38;98633.59;;;26.07;36.12
34979;BME280;21185;50.978;13.720;2022-07-05T09:23:41;98623.56;;;26.19;36.64
34979;BME280;21185;50.978;13.720;2022-07-05T09:28:55;98623.63;;;26.24;35.86
34979;BME280;21185;50.978;13.720;2022-07-05T09:39:09;98636.53;;;26.42;36.29
34979;BME280;21185;50.978;13.720;2022-07-05T09:44:24;98622.00;;;26.55;36.18
34979;BME280;21185;50.978;13.720;2022-07-05T09:49:27;98629.75;;;26.62;35.97
34979;BME280;21185;50.978;13.720;2022-07-05T09:55:13;98624.44;;;26.67;35.32
34979;BME280;21185;50.978;13.720;2022-07-05T10:00:22;98634.63;;;26.75;35.56
34979;BME280;21185;50.978;13.720;2022-07-05T10:05:29;98622.66;;;26.83;35.21
34979;BME280;21185;50.978;13.720;2022-07-05T10:10:32;98622.03;;;26.65;35.03
34979;BME280;21185;50.978;13.720;2022-07-05T10:15:36;98634.31;;;26.71;34.70
34979;BME280;21185;50.978;13.720;2022-07-05T10:20:42;98628.03;;;26.93;34.71
34979;BME280;21185;50.978;13.720;2022-07-05T10:25:48;98625.94;;;26.95;33.79
34979;BME280;21185;50.978;13.720;2022-07-05T10:30:51;98633.47;;;27.08;33.57
34979;BME280;21185;50.978;13.720;2022-07-05T10:35:55;98625.75;;;27.12;33.60
34979;BME280;21185;50.978;13.720;2022-07-05T10:41:01;98631.91;;;26.70;33.47
34979;BME280;21185;50.978;13.720;2022-07-05T10:46:05;98628.00;;;26.83;33.27
34979;BME280;21185;50.978;13.720;2022-07-05T10:56:18;98621.63;;;26.89;32.01
34979;BME280;21185;50.978;13.720;2022-07-05T11:16:41;98628.47;;;27.22;32.24
34979;BME280;21185;50.978;13.720;2022-07-05T11:22:04;98612.69;;;27.05;31.62
34979;BME280;21185;50.978;13.720;2022-07-05T11:27:11;98621.00;;;27.19;31.82
34979;BME280;21185;50.978;13.720;2022-07-05T11:32:16;98617.03;;;27.26;31.98
34979;BME280;21185;50.978;13.720;2022-07-05T11:37:22;98619.22;;;27.50;31.97
34979;BME280;21185;50.978;13.720;2022-07-05T11:42:57;98618.41;;;27.49;31.52
34979;BME280;21185;50.978;13.720;2022-07-05T11:48:01;98615.13;;;27.22;32.03
34979;BME280;21185;50.978;13.720;2022-07-05T11:53:06;98616.72;;;27.18;32.17
34979;BME280;21185;50.978;13.720;2022-07-05T11:58:13;98616.94;;;27.01;32.26
34979;BME280;21185;50.978;13.720;2022-07-05T12:03:16;98610.53;;;27.02;31.82
34979;BME280;21185;50.978;13.720;2022-07-05T12:08:23;98607.66;;;27.14;31.50
34979;BME280;21185;50.978;13.720;2022-07-05T12:13:27;98603.34;;;26.97;31.31
34979;BME280;21185;50.978;13.720;2022-07-05T12:18:30;98606.97;;;26.86;31.29
34979;BME280;21185;50.978;13.720;2022-07-05T12:23:34;98598.47;;;26.89;31.50
34979;BME280;21185;50.978;13.720;2022-07-05T12:28:37;98591.09;;;27.01;31.53
34979;BME280;21185;50.978;13.720;2022-07-05T12:33:40;98590.13;;;27.33;30.93
34979;BME280;21185;50.978;13.720;2022-07-05T12:38:44;98590.69;;;27.55;30.76
34979;BME280;21185;50.978;13.720;2022-07-05T12:43:54;98590.16;;;27.58;30.50
34979;BME280;21185;50.978;13.720;2022-07-05T12:49:00;98589.63;;;27.46;30.05
34979;BME280;21185;50.978;13.720;2022-07-05T12:54:08;98594.41;;;27.34;29.98
34979;BME280;21185;50.978;13.720;2022-07-05T13:00:07;98591.97;;;27.22;30.26
34979;BME280;21185;50.978;13.720;2022-07-05T13:05:24;98582.13;;;27.33;30.53
34979;BME280;21185;50.978;13.720;2022-07-05T13:10:28;98584.25;;;27.31;30.41
34979;BME280;21185;50.978;13.720;2022-07-05T13:15:41;98576.81;;;27.43;30.40
34979;BME280;21185;50.978;13.720;2022-07-05T13:20:44;98576.31;;;27.51;30.06
34979;BME280;21185;50.978;13.720;2022-07-05T13:25:47;98578.16;;;27.46;30.12
34979;BME280;21185;50.978;13.720;2022-07-05T13:30:50;98573.38;;;27.53;29.84
34979;BME280;21185;50.978;13.720;2022-07-05T13:35:53;98562.75;;;27.63;29.82
34979;BME280;21185;50.978;13.720;2022-07-05T13:40:56;98573.69;;;27.61;29.39
34979;BME280;21185;50.978;13.720;2022-07-05T13:45:59;98584.34;;;27.61;29.24
34979;BME280;21185;50.978;13.720;2022-07-05T13:51:03;98565.66;;;27.56;29.32
34979;BME280;21185;50.978;13.720;2022-07-05T13:56:06;98560.56;;;27.45;29.35
34979;BME280;21185;50.978;13.720;2022-07-05T14:01:11;98559.78;;;27.59;29.22
34979;BME280;21185;50.978;13.720;2022-07-05T14:06:16;98564.63;;;27.78;28.88
34979;BME280;21185;50.978;13.720;2022-07-05T14:11:19;98561.44;;;27.81;28.61
34979;BME280;21185;50.978;13.720;2022-07-05T14:16:23;98559.81;;;27.90;28.20
34979;BME280;21185;50.978;13.720;2022-07-05T14:21:26;98566.50;;;27.92;27.78
34979;BME280;21185;50.978;13.720;2022-07-05T14:26:39;98568.09;;;27.83;27.46
34979;BME280;21185;50.978;13.720;2022-07-05T14:31:43;98560.88;;;27.94;27.69
34979;BME280;21185;50.978;13.720;2022-07-05T14:36:47;98563.56;;;27.89;28.08
34979;BME280;21185;50.978;13.720;2022-07-05T14:41:49;98548.63;;;27.72;28.51
34979;BME280;21185;50.978;13.720;2022-07-05T14:46:52;98552.34;;;27.82;28.55
34979;BME280;21185;50.978;13.720;2022-07-05T14:51:56;98539.81;;;27.97;28.77
34979;BME280;21185;50.978;13.720;2022-07-05T14:56:59;98539.53;;;28.04;28.60
34979;BME280;21185;50.978;13.720;2022-07-05T15:02:01;98543.56;;;27.96;28.23
34979;BME280;21185;50.978;13.720;2022-07-05T15:07:06;98544.63;;;27.90;27.91
34979;BME280;21185;50.978;13.720;2022-07-05T15:12:09;98535.28;;;27.88;27.88
34979;BME280;21185;50.978;13.720;2022-07-05T15:17:12;98516.63;;;27.83;27.79
34979;BME280;21185;50.978;13.720;2022-07-05T15:22:15;98531.56;;;27.79;27.60
34979;BME280;21185;50.978;13.720;2022-07-05T15:27:18;98526.75;;;27.76;27.60
34979;BME280;21185;50.978;13.720;2022-07-05T15:32:21;98534.75;;;27.70;27.36
34979;BME280;21185;50.978;13.720;2022-07-05T15:37:23;98531.31;;;27.65;27.18
34979;BME280;21185;50.978;13.720;2022-07-05T15:42:26;98526.75;;;27.60;27.52
34979;BME280;21185;50.978;13.720;2022-07-05T15:47:29;98533.13;;;27.59;27.33
34979;BME280;21185;50.978;13.720;2022-07-05T15:52:32;98526.75;;;27.60;27.24
34979;BME280;21185;50.978;13.720;2022-07-05T15:57:35;98519.81;;;27.54;27.89
34979;BME280;21185;50.978;13.720;2022-07-05T16:02:38;98517.66;;;27.46;27.32
34979;BME280;21185;50.978;13.720;2022-07-05T16:07:40;98525.91;;;27.39;27.27
34979;BME280;21185;50.978;13.720;2022-07-05T16:12:44;98513.66;;;27.33;27.71
34979;BME280;21185;50.978;13.720;2022-07-05T16:17:47;98515.78;;;27.26;28.25
34979;BME280;21185;50.978;13.720;2022-07-05T16:22:51;98520.56;;;27.19;28.27
34979;BME280;21185;50.978;13.720;2022-07-05T16:27:53;98524.56;;;27.17;28.24
34979;BME280;21185;50.978;13.720;2022-07-05T16:32:56;98515.50;;;27.18;28.34
34979;BME280;21185;50.978;13.720;2022-07-05T16:38:03;98508.03;;;27.09;28.08
34979;BME280;21185;50.978;13.720;2022-07-05T16:43:06;98507.47;;;27.02;28.37
34979;BME280;21185;50.978;13.720;2022-07-05T16:48:10;98505.88;;;27.01;28.18
34979;BME280;21185;50.978;13.720;2022-07-05T16:53:13;98503.47;;;27.00;28.46
34979;BME280;21185;50.978;13.720;2022-07-05T16:58:17;98501.56;;;26.95;28.49
34979;BME280;21185;50.978;13.720;2022-07-05T17:03:19;98498.34;;;26.88;28.43
34979;BME280;21185;50.978;13.720;2022-07-05T17:08:23;98501.53;;;26.80;28.78
34979;BME280;21185;50.978;13.720;2022-07-05T17:13:33;98502.84;;;26.72;29.10
34979;BME280;21185;50.978;13.720;2022-07-05T17:18:41;98495.13;;;26.76;29.31
34979;BME280;21185;50.978;13.720;2022-07-05T17:23:46;98504.16;;;26.70;29.03
34979;BME280;21185;50.978;13.720;2022-07-05T17:28:51;98499.34;;;26.67;29.19
34979;BME280;21185;50.978;13.720;2022-07-05T17:33:55;98499.34;;;26.62;28.99
34979;BME280;21185;50.978;13.720;2022-07-05T17:38:58;98500.91;;;26.58;28.91
34979;BME280;21185;50.978;13.720;2022-07-05T17:44:03;98495.03;;;26.51;29.09
34979;BME280;21185;50.978;13.720;2022-07-05T17:49:10;98501.13;;;26.46;29.16
34979;BME280;21185;50.978;13.720;2022-07-05T17:54:15;98499.28;;;26.46;28.77
34979;BME280;21185;50.978;13.720;2022-07-05T17:59:18;98509.38;;;26.44;29.05
34979;BME280;21185;50.978;13.720;2022-07-05T18:04:21;98506.44;;;26.41;29.02
34979;BME280;21185;50.978;13.720;2022-07-05T18:09:24;98508.25;;;26.35;29.13
34979;BME280;21185;50.978;13.720;2022-07-05T18:14:27;98512.47;;;26.31;29.46
34979;BME280;21185;50.978;13.720;2022-07-05T18:19:30;98524.13;;;26.25;29.64
34979;BME280;21185;50.978;13.720;2022-07-05T18:24:33;98526.22;;;26.18;29.97
34979;BME280;21185;50.978;13.720;2022-07-05T18:29:36;98530.72;;;26.12;30.00
34979;BME280;21185;50.978;13.720;2022-07-05T18:34:39;98534.38;;;26.06;30.34
34979;BME280;21185;50.978;13.720;2022-07-05T18:39:43;98535.44;;;26.00;30.63
34979;BME280;21185;50.978;13.720;2022-07-05T18:44:46;98537.25;;;25.95;30.75
34979;BME280;21185;50.978;13.720;2022-07-05T18:49:49;98541.44;;;25.86;30.68
34979;BME280;21185;50.978;13.720;2022-07-05T18:54:53;98546.19;;;25.78;30.93
34979;BME280;21185;50.978;13.720;2022-07-05T18:59:55;98548.25;;;25.71;31.26
34979;BME280;21185;50.978;13.720;2022-07-05T19:04:59;98557.22;;;25.65;31.33
34979;BME280;21185;50.978;13.720;2022-07-05T19:10:03;98561.94;;;25.58;31.23
34979;BME280;21185;50.978;13.720;2022-07-05T19:15:24;98559.22;;;25.53;31.49
34979;BME280;21185;50.978;13.720;2022-07-05T19:20:27;98561.81;;;25.48;31.79
34979;BME280;21185;50.978;13.720;2022-07-05T19:25:50;98566.78;;;25.39;31.94
34979;BME280;21185;50.978;13.720;2022-07-05T19:30:53;98574.41;;;25.31;32.00
34979;BME280;21185;50.978;13.720;2022-07-05T19:35:56;98588.69;;;25.25;32.18
34979;BME280;21185;50.978;13.720;2022-07-05T19:41:01;98583.81;;;25.16;32.75
34979;BME280;21185;50.978;13.720;2022-07-05T19:46:04;98601.78;;;25.09;32.90
34979;BME280;21185;50.978;13.720;2022-07-05T19:51:07;98599.31;;;25.03;33.02
34979;BME280;21185;50.978;13.720;2022-07-05T19:56:10;98607.44;;;24.96;33.52
34979;BME280;21185;50.978;13.720;2022-07-05T20:01:13;98602.88;;;24.92;33.77
34979;BME280;21185;50.978;13.720;2022-07-05T20:06:16;98607.06;;;24.88;33.64
34979;BME280;21185;50.978;13.720;2022-07-05T20:11:19;98612.31;;;24.82;33.87
34979;BME280;21185;50.978;13.720;2022-07-05T20:16:45;98612.50;;;24.76;33.90
34979;BME280;21185;50.978;13.720;2022-07-05T20:21:50;98615.06;;;24.71;33.91
34979;BME280;21185;50.978;13.720;2022-07-05T20:26:52;98620.31;;;24.66;33.63
34979;BME280;21185;50.978;13.720;2022-07-05T20:31:55;98629.25;;;24.60;33.74
34979;BME280;21185;50.978;13.720;2022-07-05T20:36:58;98635.03;;;24.57;34.32
34979;BME280;21185;50.978;13.720;2022-07-05T20:42:03;98640.84;;;24.53;34.17
34979;BME280;21185;50.978;13.720;2022-07-05T20:47:06;98639.97;;;24.48;34.29
34979;BME280;21185;50.978;13.720;2022-07-05T20:52:09;98646.47;;;24.40;34.41
34979;BME280;21185;50.978;13.720;2022-07-05T20:57:12;98650.91;;;24.35;34.58
34979;BME280;21185;50.978;13.720;2022-07-05T21:02:15;98651.63;;;24.30;35.07
34979;BME280;21185;50.978;13.720;2022-07-05T21:07:18;98657.84;;;24.24;34.90
34979;BME280;21185;50.978;13.720;2022-07-05T21:12:21;98653.84;;;24.21;35.16
34979;BME280;21185;50.978;13.720;2022-07-05T21:17:24;98658.91;;;24.23;35.08
34979;BME280;21185;50.978;13.720;2022-07-05T21:22:27;98666.06;;;24.22;35.20
34979;BME280;21185;50.978;13.720;2022-07-05T21:27:29;98682.31;;;24.26;35.30
34979;BME280;21185;50.978;13.720;2022-07-05T21:32:30;98673.53;;;24.26;35.45
34979;BME280;21185;50.978;13.720;2022-07-05T21:37:33;98670.06;;;24.25;35.60
34979;BME280;21185;50.978;13.720;2022-07-05T21:42:36;98674.00;;;24.22;35.95
34979;BME280;21185;50.978;13.720;2022-07-05T21:47:39;98671.03;;;24.19;36.09
34979;BME280;21185;50.978;13.720;2022-07-05T21:52:41;98678.66;;;24.15;36.46
34979;BME280;21185;50.978;13.720;2022-07-05T21:57:45;98674.88;;;24.11;36.36
34979;BME280;21185;50.978;13.720;2022-07-05T22:02:47;98670.31;;;24.07;36.88
34979;BME280;21185;50.978;13.720;2022-07-05T22:08:09;98664.03;;;23.96;36.89
34979;BME280;21185;50.978;13.720;2022-07-05T22:13:12;98653.00;;;23.87;36.95
34979;BME280;21185;50.978;13.720;2022-07-05T22:18:15;98658.94;;;23.78;37.23
34979;BME280;21185;50.978;13.720;2022-07-05T22:23:18;98651.84;;;23.67;37.60
34979;BME280;21185;50.978;13.720;2022-07-05T22:28:20;98651.97;;;23.60;37.31
34979;BME280;21185;50.978;13.720;2022-07-05T22:33:24;98665.94;;;23.55;37.68
34979;BME280;21185;50.978;13.720;2022-07-05T22:38:26;98688.97;;;23.55;37.66
34979;BME280;21185;50.978;13.720;2022-07-05T22:43:29;98690.81;;;23.54;37.54
34979;BME280;21185;50.978;13.720;2022-07-05T22:48:34;98713.25;;;23.52;37.39
34979;BME280;21185;50.978;13.720;2022-07-05T22:53:37;98742.63;;;23.50;37.36
34979;BME280;21185;50.978;13.720;2022-07-05T22:58:40;98771.19;;;23.37;38.12
34979;BME280;21185;50.978;13.720;2022-07-05T23:03:43;98800.34;;;23.13;38.90
34979;BME280;21185;50.978;13.720;2022-07-05T23:08:46;98805.38;;;22.80;40.02
34979;BME280;21185;50.978;13.720;2022-07-05T23:13:49;98816.78;;;22.50;40.85
34979;BME280;21185;50.978;13.720;2022-07-05T23:18:52;98839.91;;;22.25;41.66
34979;BME280;21185;50.978;13.720;2022-07-05T23:23:55;98848.59;;;21.95;43.64
34979;BME280;21185;50.978;13.720;2022-07-05T23:29:16;98862.00;;;21.76;44.48
34979;BME280;21185;50.978;13.720;2022-07-05T23:34:19;98835.81;;;21.56;45.43
34979;BME280;21185;50.978;13.720;2022-07-05T23:39:21;98817.19;;;21.51;45.66
34979;BME280;21185;50.978;13.720;2022-07-05T23:44:24;98835.88;;;21.49;45.56
34979;BME280;21185;50.978;13.720;2022-07-05T23:49:27;98835.94;;;21.43;46.57
34979;BME280;21185;50.978;13.720;2022-07-05T23:54:31;98851.91;;;21.29;47.61
34979;BME280;21185;50.978;13.720;2022-07-05T23:59:35;98835.31;;;21.22;47.47
